Terminal Aerodrome Forecast
Issued by NWS Grand Forks, ND

Home | Current Version | Previous Version | Text Only | Print | Product List | Glossary Off
Versions: 1 2 3 4 5 6 7 8 9 10 11 12 13 14 15

000
FTUS43 KFGF 252320
TAFGFK
TAF
KGFK 252320Z 2600/2624 32009KT P6SM FEW026
     FM260400 33005KT P6SM BKN035 BKN150
     FM260600 34005KT 6SM -SN BKN030
      TEMPO 2606/2609 2SM -SN OVC015
     FM260900 33006KT 3SM -SN BKN020
     FM261100 32007KT P6SM BKN060
     FM262000 25006KT P6SM BKN140=

USA.gov is the U.S. government's official web portal to all federal, state and local government web resources and services.